Time;durP1;ratioP1;P1;durP2;ratioP2;P2;SDS_P1;SDS_P2;PMS_P1;PMS_P2;Temp;Humidity;BMP_temperature;BMP_pressure;BME280_temperature;BME280_humidity;BME280_pressure;Samples;Min_cycle;Max_cycle;Signal;HPM_P1;HPM_P2
2022/10/22 00:01:27;;;;;;;10.93;2.30;;;;;;;17.05;80.32;100407.03;5088315;28;20058;-61
2022/10/22 00:03:54;;;;;;;10.73;2.13;;;;;;;17.12;80.34;100418.34;5084804;28;20104;-61
2022/10/22 00:06:21;;;;;;;9.13;1.83;;;;;;;17.14;80.04;100419.56;5074745;28;20406;-60
2022/10/22 00:08:49;;;;;;;10.25;2.15;;;;;;;17.10;80.26;100426.25;5090777;28;20059;-61
2022/10/22 00:11:18;;;;;;;10.32;2.05;;;;;;;17.04;80.48;100420.16;5076794;28;20048;-60
2022/10/22 00:13:46;;;;;;;8.27;2.00;;;;;;;17.24;80.48;100427.38;5093277;28;20506;-61
2022/10/22 00:16:18;;;;;;;10.07;2.05;;;;;;;17.10;79.88;100427.06;5089716;28;20508;-62
2022/10/22 00:18:45;;;;;;;12.75;2.10;;;;;;;17.13;79.91;100426.31;5088583;28;20048;-62
2022/10/22 00:21:13;;;;;;;16.60;2.60;;;;;;;17.01;80.54;100434.78;5088021;28;20075;-61
2022/10/22 00:23:41;;;;;;;9.55;2.42;;;;;;;16.94;80.36;100433.81;5087203;28;20052;-62
2022/10/22 00:26:09;;;;;;;12.02;1.95;;;;;;;17.00;81.00;100435.16;5075839;28;20044;-62
2022/10/22 00:28:37;;;;;;;14.55;2.17;;;;;;;16.88;81.78;100438.84;5089298;28;20147;-60
2022/10/22 00:31:05;;;;;;;6.55;1.80;;;;;;;16.97;81.44;100439.47;5089032;28;20052;-61
2022/10/22 00:33:33;;;;;;;15.27;2.70;;;;;;;16.96;81.37;100440.66;5088797;28;20055;-60
2022/10/22 00:36:00;;;;;;;13.07;2.08;;;;;;;17.04;80.59;100453.53;5074902;28;20419;-60
2022/10/22 00:38:27;;;;;;;11.20;2.65;;;;;;;16.94;81.43;100451.31;5079908;28;20052;-61
2022/10/22 00:40:54;;;;;;;8.55;1.92;;;;;;;17.04;80.67;100449.94;5091860;28;20059;-61
2022/10/22 00:43:22;;;;;;;12.63;2.38;;;;;;;17.00;80.83;100457.41;5078925;28;20055;-61
2022/10/22 00:45:49;;;;;;;9.30;2.28;;;;;;;17.02;80.69;100464.22;5076753;28;20058;-60
2022/10/22 00:48:25;;;;;;;8.45;2.60;;;;;;;17.04;80.31;100467.44;5094811;28;20052;-61
2022/10/22 00:50:56;;;;;;;11.05;1.90;;;;;;;17.09;80.53;100471.91;5078233;28;20052;-62
2022/10/22 00:53:30;;;;;;;7.68;1.80;;;;;;;16.99;80.85;100476.09;5082892;28;20727;-60
2022/10/22 00:55:58;;;;;;;9.00;2.30;;;;;;;17.08;80.77;100467.53;5091712;28;20392;-60
2022/10/22 00:58:28;;;;;;;10.80;2.08;;;;;;;16.92;81.02;100477.88;5080370;28;20049;-60
2022/10/22 01:00:56;;;;;;;6.78;2.20;;;;;;;16.96;81.12;100485.16;5092387;28;20048;-62
2022/10/22 01:03:24;;;;;;;8.30;1.95;;;;;;;16.85;81.42;100493.25;5087202;28;20063;-62
2022/10/22 01:05:56;;;;;;;9.13;1.75;;;;;;;16.93;80.97;100490.66;5081759;28;20040;-62
2022/10/22 01:08:46;;;;;;;10.40;2.33;;;;;;;16.86;80.66;100489.28;5061779;28;20048;-60
2022/10/22 01:11:38;;;;;;;9.98;2.72;;;;;;;16.88;81.29;100502.06;5082019;28;20055;-60
2022/10/22 01:14:13;;;;;;;10.55;2.15;;;;;;;16.90;81.17;100500.50;5094255;28;20059;-61
2022/10/22 01:17:14;;;;;;;10.77;2.22;;;;;;;16.84;80.98;100507.53;5092630;28;20514;-61
2022/10/22 01:20:07;;;;;;;9.65;1.70;;;;;;;17.03;81.49;100504.81;5092950;28;20521;-61
2022/10/22 01:22:55;;;;;;;10.48;2.13;;;;;;;16.91;81.43;100507.69;5085356;28;20049;-60
2022/10/22 01:25:30;;;;;;;15.18;2.25;;;;;;;16.95;80.33;100519.72;5087887;28;20048;-61
2022/10/22 01:28:13;;;;;;;8.32;2.05;;;;;;;17.06;80.27;100522.75;5066929;28;20067;-61
2022/10/22 01:30:42;;;;;;;10.38;2.10;;;;;;;17.04;80.05;100523.13;5093088;28;20786;-59
2022/10/22 01:33:11;;;;;;;9.15;2.15;;;;;;;17.07;80.39;100524.38;5073932;28;20048;-61
2022/10/22 01:35:41;;;;;;;12.00;2.03;;;;;;;17.10;79.98;100532.00;5075034;28;20052;-61
2022/10/22 01:38:12;;;;;;;11.48;1.90;;;;;;;17.07;79.90;100533.50;5087869;28;20056;-60
2022/10/22 01:40:39;;;;;;;12.23;2.10;;;;;;;17.11;80.36;100537.19;5084058;28;20147;-60
2022/10/22 01:43:08;;;;;;;8.93;1.95;;;;;;;17.00;79.93;100540.91;5079291;28;20435;-60
2022/10/22 01:45:39;;;;;;;8.40;1.80;;;;;;;17.00;79.99;100538.13;5090263;28;20044;-60
2022/10/22 01:48:28;;;;;;;11.70;1.92;;;;;;;16.92;80.04;100530.75;5079575;28;20067;-60
2022/10/22 01:51:21;;;;;;;9.13;2.00;;;;;;;17.11;79.53;100537.19;5064979;28;20048;-60
2022/10/22 01:54:13;;;;;;;10.38;2.38;;;;;;;17.12;79.07;100532.44;5081318;28;20051;-61
2022/10/22 01:56:54;;;;;;;10.43;2.10;;;;;;;17.12;78.27;100526.88;5086199;28;20053;-61
2022/10/22 01:59:42;;;;;;;7.97;1.88;;;;;;;17.12;78.09;100533.22;5087282;28;20044;-62
2022/10/22 02:02:23;;;;;;;13.27;1.95;;;;;;;17.10;78.07;100532.00;5078557;28;20048;-60
2022/10/22 02:05:17;;;;;;;12.18;2.10;;;;;;;16.98;79.02;100530.09;5087131;28;20059;-60
2022/10/22 02:07:51;;;;;;;13.63;2.20;;;;;;;16.93;79.60;100538.72;5094415;28;20430;-60
2022/10/22 02:10:19;;;;;;;14.00;2.38;;;;;;;17.05;79.75;100535.84;5076039;28;20072;-60
2022/10/22 02:12:49;;;;;;;13.18;2.67;;;;;;;17.01;79.82;100542.50;5095571;28;20043;-60
2022/10/22 02:15:18;;;;;;;11.98;2.28;;;;;;;17.11;79.86;100548.31;5082960;28;20059;-60
2022/10/22 02:17:46;;;;;;;13.32;2.58;;;;;;;17.11;79.05;100539.16;5086034;28;20480;-61
2022/10/22 02:20:25;;;;;;;14.48;3.10;;;;;;;17.00;79.54;100543.69;5072057;28;20040;-61
2022/10/22 02:22:52;;;;;;;11.18;2.05;;;;;;;17.12;79.16;100543.59;5074220;28;20052;-61
2022/10/22 02:25:24;;;;;;;10.88;1.88;;;;;;;17.05;79.74;100546.19;5083919;28;20047;-59
2022/10/22 02:28:22;;;;;;;12.45;2.40;;;;;;;17.00;80.09;100543.69;5080410;28;20044;-61
2022/10/22 02:30:56;;;;;;;10.75;1.77;;;;;;;17.08;79.26;100540.72;5094257;28;20047;-60
2022/10/22 02:33:29;;;;;;;9.15;2.10;;;;;;;16.95;78.97;100547.53;5097701;28;20146;-61
2022/10/22 02:35:57;;;;;;;10.52;1.95;;;;;;;17.04;80.09;100545.38;5111060;28;20491;-61
2022/10/22 02:38:25;;;;;;;13.77;2.42;;;;;;;17.12;79.02;100549.16;5096561;28;20035;-60
2022/10/22 02:40:53;;;;;;;8.80;1.60;;;;;;;17.15;79.21;100545.63;5089088;28;20059;-60
2022/10/22 02:43:23;;;;;;;10.82;2.15;;;;;;;17.06;78.93;100548.59;5079237;28;20044;-60
2022/10/22 02:45:50;;;;;;;16.65;2.67;;;;;;;17.10;78.96;100555.06;5096543;28;20044;-60
2022/10/22 02:48:17;;;;;;;12.45;2.75;;;;;;;16.86;79.80;100567.19;5095456;28;20063;-60
2022/10/22 02:50:44;;;;;;;13.10;2.22;;;;;;;16.92;79.37;100562.16;5081394;28;20059;-61
2022/10/22 02:53:12;;;;;;;11.55;2.03;;;;;;;17.00;79.47;100571.50;5096953;28;20056;-61
2022/10/22 02:55:40;;;;;;;11.57;2.08;;;;;;;16.91;80.02;100582.00;5081844;28;20047;-60
2022/10/22 02:58:07;;;;;;;8.95;1.63;;;;;;;16.80;80.59;100579.78;5096917;28;20048;-60
2022/10/22 03:00:34;;;;;;;14.15;2.67;;;;;;;16.91;80.12;100579.22;5078610;28;20040;-60
2022/10/22 03:03:02;;;;;;;9.05;2.38;;;;;;;16.84;80.54;100588.22;5096312;28;20043;-60
2022/10/22 03:05:29;;;;;;;12.45;2.17;;;;;;;16.75;80.76;100588.34;5095632;28;20048;-60
2022/10/22 03:07:56;;;;;;;12.48;2.10;;;;;;;16.77;80.85;100585.25;5097227;28;20044;-61
2022/10/22 03:10:23;;;;;;;12.32;1.90;;;;;;;16.83;81.01;100592.94;5087840;28;20056;-61
2022/10/22 03:12:50;;;;;;;9.52;2.35;;;;;;;16.91;80.83;100587.56;5090572;28;20427;-60
2022/10/22 03:15:18;;;;;;;13.82;2.83;;;;;;;16.81;81.43;100586.13;5094026;28;20048;-61
2022/10/22 03:17:45;;;;;;;13.18;2.50;;;;;;;16.71;81.49;100595.81;5075428;28;20534;-61
2022/10/22 03:20:12;;;;;;;13.02;2.40;;;;;;;16.82;81.71;100598.88;5076390;28;20056;-61
2022/10/22 03:22:41;;;;;;;10.60;2.08;;;;;;;16.71;81.73;100600.56;5095889;28;20051;-61
2022/10/22 03:25:17;;;;;;;13.85;2.75;;;;;;;16.84;81.60;100602.91;5094665;28;20055;-60
2022/10/22 03:27:45;;;;;;;9.98;1.92;;;;;;;16.73;82.00;100598.25;5096680;28;20064;-61
2022/10/22 03:30:12;;;;;;;13.07;2.80;;;;;;;16.88;81.73;100612.16;5085599;28;20033;-61
2022/10/22 03:32:40;;;;;;;15.38;2.25;;;;;;;16.88;81.50;100603.00;5096496;27;20056;-61
2022/10/22 03:35:07;;;;;;;12.98;2.40;;;;;;;16.72;81.88;100599.38;5088264;28;20067;-61
2022/10/22 03:37:35;;;;;;;15.60;2.40;;;;;;;16.71;81.55;100606.13;5095848;28;20059;-62
2022/10/22 03:40:05;;;;;;;11.75;1.90;;;;;;;16.55;82.27;100606.09;5093718;28;20048;-62
2022/10/22 03:42:32;;;;;;;14.15;2.30;;;;;;;16.71;83.43;100609.72;5088106;28;20072;-60
2022/10/22 03:45:00;;;;;;;15.88;2.50;;;;;;;16.72;82.61;100610.50;5075276;28;20051;-61
2022/10/22 03:47:27;;;;;;;10.18;2.55;;;;;;;16.73;82.84;100606.59;5089923;28;20059;-61
2022/10/22 03:49:54;;;;;;;12.93;2.90;;;;;;;16.89;82.22;100610.97;5089728;28;20036;-60
2022/10/22 03:52:21;;;;;;;13.93;2.33;;;;;;;16.84;82.30;100608.47;5092848;28;20051;-61
2022/10/22 03:54:49;;;;;;;9.18;2.20;;;;;;;16.80;81.99;100615.13;5095329;28;20060;-60
2022/10/22 03:57:16;;;;;;;12.95;2.65;;;;;;;16.78;82.52;100614.66;5090104;28;20059;-60
2022/10/22 03:59:45;;;;;;;13.07;2.30;;;;;;;16.78;82.46;100623.81;5074210;28;20495;-60
2022/10/22 04:02:12;;;;;;;9.25;2.13;;;;;;;16.78;82.39;100629.38;5089794;28;20051;-60
2022/10/22 04:04:40;;;;;;;11.32;2.00;;;;;;;16.74;82.54;100630.44;5095784;28;20048;-60
2022/10/22 04:07:07;;;;;;;16.73;2.42;;;;;;;16.70;82.36;100629.56;5089887;28;20052;-61
2022/10/22 04:09:35;;;;;;;10.65;2.42;;;;;;;16.73;82.88;100632.44;5078305;28;20510;-60
2022/10/22 04:12:04;;;;;;;11.73;2.42;;;;;;;16.77;82.63;100638.09;5085458;28;20052;-60
2022/10/22 04:14:31;;;;;;;10.07;2.67;;;;;;;16.76;82.04;100639.25;5074870;28;20361;-60
2022/10/22 04:16:58;;;;;;;11.00;2.47;;;;;;;16.72;82.42;100643.88;5093992;28;20040;-60
2022/10/22 04:19:26;;;;;;;21.02;3.08;;;;;;;16.75;82.43;100649.56;5095385;28;20055;-60
2022/10/22 04:21:53;;;;;;;13.77;2.40;;;;;;;16.78;82.50;100654.41;5093350;28;20628;-61
2022/10/22 04:24:20;;;;;;;16.20;2.58;;;;;;;16.84;82.09;100649.41;5095352;28;20059;-60
2022/10/22 04:26:48;;;;;;;12.05;2.40;;;;;;;16.84;81.94;100654.97;5094653;28;20056;-61
2022/10/22 04:29:15;;;;;;;11.05;2.15;;;;;;;16.74;82.26;100658.25;5092663;28;20063;-61
2022/10/22 04:31:42;;;;;;;13.57;2.33;;;;;;;16.82;82.68;100658.09;5092180;28;20345;-61
2022/10/22 04:34:09;;;;;;;10.40;2.10;;;;;;;16.78;82.65;100664.72;5074967;28;20049;-61
2022/10/22 04:36:37;;;;;;;12.82;2.63;;;;;;;16.73;82.75;100659.44;5084831;28;20052;-59
2022/10/22 04:39:04;;;;;;;12.13;2.67;;;;;;;16.83;82.75;100670.84;5095060;28;20047;-60
2022/10/22 04:41:34;;;;;;;10.25;2.60;;;;;;;16.77;82.87;100671.47;5093304;28;20052;-61
2022/10/22 04:44:02;;;;;;;13.75;2.33;;;;;;;16.79;82.54;100669.13;5074621;28;20063;-61
2022/10/22 04:46:32;;;;;;;16.92;2.85;;;;;;;16.74;82.63;100669.38;5084702;28;20213;-60
2022/10/22 04:48:59;;;;;;;10.70;2.13;;;;;;;16.77;82.48;100675.03;5080924;28;20048;-61
2022/10/22 04:51:26;;;;;;;9.95;2.25;;;;;;;16.76;82.46;100672.63;5093876;28;20050;-61
2022/10/22 04:53:54;;;;;;;13.82;2.97;;;;;;;16.95;82.10;100671.94;5093087;28;20054;-61
2022/10/22 04:56:23;;;;;;;12.10;2.22;;;;;;;16.85;82.51;100667.72;5093012;28;20047;-62
2022/10/22 04:58:55;;;;;;;16.17;2.80;;;;;;;16.84;82.40;100672.47;5076076;28;20057;-61
2022/10/22 05:01:43;;;;;;;13.13;2.55;;;;;;;16.81;82.29;100673.19;5084088;28;20055;-65
2022/10/22 05:04:13;;;;;;;10.60;2.45;;;;;;;16.92;82.33;100672.66;5074376;28;20052;-60
2022/10/22 05:06:40;;;;;;;18.23;2.42;;;;;;;16.82;82.36;100674.78;5084245;28;20052;-60
2022/10/22 05:09:11;;;;;;;13.10;2.40;;;;;;;16.82;82.62;100679.56;5074370;28;20059;-60
2022/10/22 05:11:40;;;;;;;13.73;2.35;;;;;;;16.90;82.00;100681.34;5088619;28;20087;-60
2022/10/22 05:14:09;;;;;;;12.18;2.75;;;;;;;16.91;82.42;100683.00;5074835;28;20064;-61
2022/10/22 05:16:39;;;;;;;15.07;3.80;;;;;;;17.08;81.86;100679.03;5085268;28;20047;-61
2022/10/22 05:19:07;;;;;;;41.40;19.20;;;;;;;17.03;82.14;100682.91;5094116;28;20044;-60
2022/10/22 05:21:36;;;;;;;33.95;16.90;;;;;;;17.08;81.83;100691.00;5086005;28;20052;-61
2022/10/22 05:24:03;;;;;;;19.67;5.47;;;;;;;17.15;81.38;100696.75;5074190;28;20724;-61
2022/10/22 05:26:31;;;;;;;18.30;2.90;;;;;;;17.10;81.59;100699.00;5084079;28;20063;-59
2022/10/22 05:28:58;;;;;;;9.80;2.55;;;;;;;16.84;82.11;100702.28;5091089;28;20052;-59
2022/10/22 05:31:27;;;;;;;16.55;2.78;;;;;;;16.97;82.42;100694.63;5083457;28;20067;-61
2022/10/22 05:33:54;;;;;;;16.20;2.55;;;;;;;16.90;82.59;100709.19;5089989;28;20162;-61
2022/10/22 05:36:22;;;;;;;16.65;2.92;;;;;;;16.92;82.32;100704.06;5074922;28;20212;-61
2022/10/22 05:38:50;;;;;;;14.02;3.45;;;;;;;16.82;83.02;100713.72;5074091;28;20404;-61
2022/10/22 05:41:22;;;;;;;19.45;4.55;;;;;;;16.76;83.22;100708.78;5085257;28;20063;-61
2022/10/22 05:43:49;;;;;;;20.35;6.43;;;;;;;16.80;82.94;100706.91;5085290;28;20052;-61
2022/10/22 05:46:19;;;;;;;21.50;7.25;;;;;;;16.80;83.50;100718.03;5086722;28;20048;-61
2022/10/22 05:48:54;;;;;;;16.80;3.72;;;;;;;16.84;83.08;100716.19;5092136;28;20049;-61
2022/10/22 05:51:23;;;;;;;14.98;3.83;;;;;;;16.73;83.28;100718.66;5087716;28;20055;-62
2022/10/22 05:53:55;;;;;;;14.98;2.90;;;;;;;16.50;83.97;100714.00;5088594;28;20056;-61
2022/10/22 05:56:23;;;;;;;16.03;2.63;;;;;;;16.59;83.90;100712.69;5089875;28;20059;-60
2022/10/22 05:58:50;;;;;;;15.07;2.67;;;;;;;16.67;83.84;100708.94;5095738;28;20062;-60
2022/10/22 06:01:20;;;;;;;17.23;4.63;;;;;;;16.58;84.27;100724.97;5079507;28;20078;-60
2022/10/22 06:03:48;;;;;;;11.90;4.18;;;;;;;16.28;85.17;100720.88;5097748;28;20051;-61
2022/10/22 06:06:19;;;;;;;16.20;4.15;;;;;;;16.23;85.91;100723.09;5090966;28;20040;-61
2022/10/22 06:08:48;;;;;;;14.23;3.60;;;;;;;16.55;84.98;100722.91;5064501;28;20049;-61
2022/10/22 06:11:17;;;;;;;17.48;4.93;;;;;;;16.61;84.75;100720.69;5085789;28;20437;-61
2022/10/22 06:13:45;;;;;;;18.80;4.25;;;;;;;16.46;84.70;100725.00;5097193;28;20059;-60
2022/10/22 06:16:13;;;;;;;14.80;3.00;;;;;;;16.49;85.17;100732.63;5094474;28;20063;-61
2022/10/22 06:18:40;;;;;;;17.52;5.72;;;;;;;16.35;85.32;100740.53;5097879;28;20048;-59
2022/10/22 06:21:12;;;;;;;21.63;5.20;;;;;;;16.30;85.96;100731.66;5096872;28;20048;-61
2022/10/22 06:23:40;;;;;;;23.77;7.38;;;;;;;16.30;86.08;100735.22;5080622;28;20048;-61
2022/10/22 06:26:08;;;;;;;17.75;5.20;;;;;;;16.25;86.18;100740.22;5105436;28;20056;-59
2022/10/22 06:28:35;;;;;;;16.35;4.43;;;;;;;16.09;87.00;100748.44;5080718;28;20051;-60
2022/10/22 06:31:04;;;;;;;26.05;9.80;;;;;;;16.06;87.61;100745.56;5090761;28;20051;-61
2022/10/22 06:33:33;;;;;;;15.90;4.47;;;;;;;16.25;87.33;100751.34;5095422;28;20143;-60
2022/10/22 06:36:07;;;;;;;18.42;6.78;;;;;;;16.24;86.64;100749.72;5084101;28;20647;-60
2022/10/22 06:38:34;;;;;;;18.08;7.38;;;;;;;16.22;86.59;100752.03;5083012;28;20056;-61
2022/10/22 06:41:03;;;;;;;16.92;3.33;;;;;;;16.13;86.89;100754.13;5093501;28;20055;-61
2022/10/22 06:43:31;;;;;;;15.90;3.70;;;;;;;16.12;87.14;100755.28;5082316;28;20059;-60
2022/10/22 06:46:04;;;;;;;11.25;3.03;;;;;;;16.17;87.51;100761.44;5082367;28;20051;-61
2022/10/22 06:48:32;;;;;;;17.80;3.88;;;;;;;16.16;87.17;100770.13;5084568;28;20066;-60
2022/10/22 06:51:08;;;;;;;17.65;3.42;;;;;;;16.16;86.57;100768.13;5094466;28;20079;-60
2022/10/22 06:53:35;;;;;;;11.55;2.80;;;;;;;16.32;87.49;100771.81;5079589;28;20040;-60
2022/10/22 06:56:11;;;;;;;12.38;2.97;;;;;;;16.12;86.65;100772.78;5085643;28;20071;-60
2022/10/22 06:58:39;;;;;;;15.77;3.47;;;;;;;16.13;87.07;100782.72;5084549;28;20044;-61
2022/10/22 07:01:12;;;;;;;16.50;4.43;;;;;;;16.09;87.08;100786.56;5090939;28;20051;-61
2022/10/22 07:03:40;;;;;;;10.27;3.38;;;;;;;15.90;88.02;100792.69;5096537;28;20066;-61
2022/10/22 07:06:09;;;;;;;24.50;10.50;;;;;;;16.09;87.26;100798.47;5091776;28;20051;-61
2022/10/22 07:08:37;;;;;;;15.07;4.43;;;;;;;16.18;87.08;100806.72;5095474;27;20055;-61
2022/10/22 07:11:09;;;;;;;16.70;3.80;;;;;;;16.34;86.06;100802.84;5090296;28;20047;-61
2022/10/22 07:13:36;;;;;;;14.73;3.35;;;;;;;16.20;86.61;100799.63;5084586;28;20464;-61
2022/10/22 07:16:05;;;;;;;18.80;3.22;;;;;;;16.02;87.18;100808.56;5084703;28;20051;-62
2022/10/22 07:18:33;;;;;;;13.02;3.10;;;;;;;16.10;87.61;100822.34;5078143;28;20063;-60
2022/10/22 07:21:01;;;;;;;15.68;3.30;;;;;;;16.19;86.63;100825.00;5093259;28;20052;-61
2022/10/22 07:23:29;;;;;;;14.95;3.10;;;;;;;16.27;86.29;100827.66;5087271;28;20044;-61
2022/10/22 07:25:56;;;;;;;14.35;5.18;;;;;;;16.20;86.70;100832.16;5087703;28;20052;-61
2022/10/22 07:28:24;;;;;;;19.38;7.88;;;;;;;16.29;86.71;100830.06;5080855;28;20055;-60
2022/10/22 07:30:51;;;;;;;15.27;3.58;;;;;;;16.35;86.78;100829.47;5086764;28;20479;-60
2022/10/22 07:33:19;;;;;;;12.43;2.85;;;;;;;16.11;86.63;100832.28;5088064;28;20055;-60
2022/10/22 07:35:46;;;;;;;15.73;3.40;;;;;;;16.23;87.04;100828.72;5091017;28;20052;-60
2022/10/22 07:38:13;;;;;;;11.10;3.00;;;;;;;16.40;86.30;100845.13;5094550;28;20131;-60
2022/10/22 07:40:41;;;;;;;10.23;2.90;;;;;;;16.29;85.52;100844.78;5085181;28;20056;-61
2022/10/22 07:43:08;;;;;;;14.70;3.05;;;;;;;16.37;86.01;100848.63;5087701;28;20359;-62
2022/10/22 07:45:35;;;;;;;11.43;2.72;;;;;;;16.27;85.52;100844.31;5087480;28;20048;-61
2022/10/22 07:48:03;;;;;;;16.63;3.50;;;;;;;16.27;85.99;100846.28;5059220;28;20047;-61
2022/10/22 07:50:30;;;;;;;13.98;2.83;;;;;;;16.47;85.26;100842.59;5084888;28;20044;-61
2022/10/22 07:52:58;;;;;;;17.83;3.65;;;;;;;16.36;85.51;100845.03;5083457;28;20492;-63
2022/10/22 07:55:25;;;;;;;11.25;2.78;;;;;;;16.22;85.64;100840.97;5076626;28;20057;-61
2022/10/22 07:57:52;;;;;;;15.80;2.70;;;;;;;16.29;85.80;100849.53;5093615;28;20044;-61
2022/10/22 08:00:20;;;;;;;15.85;3.30;;;;;;;16.35;85.70;100850.94;5089022;28;20517;-60
2022/10/22 08:02:51;;;;;;;9.30;2.70;;;;;;;16.50;84.80;100845.50;5080267;28;20040;-60
2022/10/22 08:05:18;;;;;;;18.30;3.20;;;;;;;16.54;84.96;100848.41;5086440;28;20063;-61
2022/10/22 08:07:46;;;;;;;11.60;2.90;;;;;;;16.75;89.02;100857.41;5086750;28;20048;-57
2022/10/22 08:10:13;;;;;;;14.60;3.47;;;;;;;16.85;86.80;100862.47;5087224;28;20044;-59
2022/10/22 08:12:40;;;;;;;13.02;3.08;;;;;;;16.78;86.87;100862.25;5086895;28;20051;-59
2022/10/22 08:15:08;;;;;;;21.15;3.55;;;;;;;16.91;86.99;100860.25;5090538;28;20059;-58
2022/10/22 08:17:36;;;;;;;14.68;3.22;;;;;;;16.75;85.66;100863.75;5080968;28;20063;-59
2022/10/22 08:20:04;;;;;;;15.77;3.22;;;;;;;16.75;85.99;100862.97;5089847;28;20052;-58
2022/10/22 08:22:31;;;;;;;13.80;3.17;;;;;;;16.77;85.32;100857.84;5089727;28;20048;-59
2022/10/22 08:24:59;;;;;;;15.07;3.42;;;;;;;16.95;86.56;100866.72;5075660;28;20048;-59
2022/10/22 08:27:27;;;;;;;15.23;3.22;;;;;;;16.99;86.69;100865.66;5084619;28;20046;-60
2022/10/22 08:29:54;;;;;;;11.20;2.60;;;;;;;16.96;85.54;100860.81;5088723;28;20048;-60
2022/10/22 08:32:21;;;;;;;13.88;3.10;;;;;;;17.14;86.73;100862.13;5092405;28;20055;-58
2022/10/22 08:34:49;;;;;;;14.15;3.30;;;;;;;17.14;84.80;100859.34;5087173;28;20075;-58
2022/10/22 08:37:16;;;;;;;19.02;2.92;;;;;;;17.23;86.02;100857.22;5088023;28;20067;-58
2022/10/22 08:39:44;;;;;;;11.88;2.97;;;;;;;17.29;85.63;100858.59;5089659;28;20048;-60
2022/10/22 08:42:36;;;;;;;11.68;3.00;;;;;;;17.28;85.10;100859.75;5091488;28;20071;-60
2022/10/22 08:45:32;;;;;;;16.05;3.10;;;;;;;17.39;83.93;100858.09;5087207;28;20044;-60
2022/10/22 08:48:11;;;;;;;13.20;5.18;;;;;;;17.54;85.00;100862.13;5068890;28;20519;-71
2022/10/22 08:50:45;;;;;;;16.27;3.58;;;;;;;17.54;84.11;100859.34;5076965;28;20962;-59
2022/10/22 08:53:15;;;;;;;15.23;3.50;;;;;;;17.51;84.21;100857.22;5086447;28;20055;-63
2022/10/22 08:55:43;;;;;;;15.35;3.80;;;;;;;17.42;84.45;100865.72;5089299;28;20052;-60
2022/10/22 08:58:29;;;;;;;19.00;3.72;;;;;;;17.54;84.68;100873.25;5089197;28;20059;-58
2022/10/22 09:01:18;;;;;;;13.88;2.63;;;;;;;17.69;85.29;100869.69;5087446;28;20052;-58
2022/10/22 09:04:04;;;;;;;10.85;2.88;;;;;;;17.72;84.11;100877.31;5079360;28;20044;-59
2022/10/22 09:06:32;;;;;;;12.63;3.22;;;;;;;17.76;84.68;100867.09;5083311;28;20067;-59
2022/10/22 09:09:00;;;;;;;15.45;3.47;;;;;;;17.75;84.49;100871.84;5079766;28;20055;-58
2022/10/22 09:11:32;;;;;;;10.80;2.75;;;;;;;17.80;83.37;100870.78;5082909;28;20045;-57
2022/10/22 09:14:00;;;;;;;12.18;3.00;;;;;;;17.89;83.91;100872.22;5086855;28;20047;-57
2022/10/22 09:17:10;;;;;;;11.32;3.42;;;;;;;17.95;82.57;100864.41;5083350;28;20054;-59
2022/10/22 09:19:54;;;;;;;11.90;4.45;;;;;;;18.14;83.34;100858.09;5078466;28;20047;-58
2022/10/22 09:22:43;;;;;;;18.55;3.30;;;;;;;17.99;80.14;100860.53;5085924;28;20391;-60
2022/10/22 09:25:20;;;;;;;13.50;2.60;;;;;;;18.09;82.96;100864.75;5083190;28;20055;-56
2022/10/22 09:27:48;;;;;;;13.25;2.42;;;;;;;18.19;81.22;100868.97;5082758;28;20051;-57
2022/10/22 09:30:18;;;;;;;12.43;2.15;;;;;;;18.13;81.27;100867.63;5089537;28;20507;-60
2022/10/22 09:32:54;;;;;;;18.00;3.13;;;;;;;18.27;80.71;100870.78;5090457;28;20036;-59
2022/10/22 09:35:24;;;;;;;12.48;2.45;;;;;;;18.23;80.43;100873.47;5083558;28;20054;-58
2022/10/22 09:37:54;;;;;;;14.15;2.78;;;;;;;18.30;80.96;100872.84;5088399;28;20071;-60
2022/10/22 09:40:22;;;;;;;14.93;2.88;;;;;;;18.31;81.82;100875.25;5082049;28;20048;-61
2022/10/22 09:42:49;;;;;;;12.38;3.08;;;;;;;18.36;82.03;100868.63;5088126;28;20043;-59
2022/10/22 09:45:19;;;;;;;11.75;2.50;;;;;;;18.43;80.85;100852.88;5087069;28;20415;-61
2022/10/22 09:47:47;;;;;;;15.60;2.60;;;;;;;18.42;81.13;100856.84;5090624;28;20044;-59
2022/10/22 09:50:48;;;;;;;15.45;3.17;;;;;;;18.49;81.13;100854.22;5085453;28;20056;-59
2022/10/22 09:53:21;;;;;;;16.35;2.30;;;;;;;18.49;80.68;100856.19;5088250;28;20044;-60
2022/10/22 09:55:54;;;;;;;14.90;3.10;;;;;;;18.53;81.11;100854.31;5091237;28;20048;-59
2022/10/22 09:58:27;;;;;;;17.45;2.88;;;;;;;18.71;83.02;100858.28;5087482;28;20051;-60
2022/10/22 10:00:59;;;;;;;15.70;2.80;;;;;;;18.78;79.78;100858.44;5091103;28;20048;-59
2022/10/22 10:03:28;;;;;;;10.23;2.40;;;;;;;19.10;78.13;100851.59;5088998;28;20051;-56
2022/10/22 10:06:00;;;;;;;17.23;3.47;;;;;;;18.85;80.35;100856.63;5083098;28;20056;-58
2022/10/22 10:08:34;;;;;;;12.48;2.90;;;;;;;18.83;81.24;100855.38;5082848;28;20287;-56
2022/10/22 10:11:09;;;;;;;14.40;3.42;;;;;;;18.81;79.83;100858.53;5089107;28;20510;-61
2022/10/22 10:13:56;;;;;;;19.20;3.92;;;;;;;18.83;80.03;100858.16;5085748;28;20036;-59
2022/10/22 10:16:50;;;;;;;13.13;3.20;;;;;;;18.87;79.09;100862.66;5083934;28;20059;-58
2022/10/22 10:19:48;;;;;;;15.95;2.90;;;;;;;18.72;78.59;100863.53;5086499;28;20044;-59
2022/10/22 10:22:36;;;;;;;14.90;2.70;;;;;;;18.81;77.95;100860.53;5087061;28;20052;-58
2022/10/22 10:25:13;;;;;;;15.13;2.58;;;;;;;18.98;80.19;100860.91;5088132;28;20059;-59
2022/10/22 10:28:00;;;;;;;12.77;3.20;;;;;;;19.07;79.46;100858.69;5093420;28;20047;-58
2022/10/22 10:30:27;;;;;;;14.02;3.10;;;;;;;19.06;77.22;100853.47;5069847;28;20051;-57
2022/10/22 10:33:14;;;;;;;13.93;3.08;;;;;;;19.22;78.71;100867.38;5088058;28;20044;-62
2022/10/22 10:35:47;;;;;;;14.52;3.40;;;;;;;19.49;82.03;100867.16;5086866;28;20062;-59
2022/10/22 10:38:44;;;;;;;11.68;2.75;;;;;;;19.45;77.56;100866.31;5079657;28;20052;-59
2022/10/22 10:41:32;;;;;;;14.68;2.97;;;;;;;19.41;78.57;100864.59;5093705;28;20044;-56
2022/10/22 10:44:21;;;;;;;10.23;2.42;;;;;;;19.39;77.27;100866.94;5090793;28;20514;-59
2022/10/22 10:46:59;;;;;;;15.80;2.60;;;;;;;19.32;77.70;100861.25;5082802;28;20047;-58
2022/10/22 10:49:29;;;;;;;13.77;3.05;;;;;;;19.52;77.68;100868.41;5090579;28;20047;-59
2022/10/22 10:52:18;;;;;;;15.05;3.38;;;;;;;19.61;74.75;100866.22;5101855;28;20057;-57
2022/10/22 10:55:27;;;;;;;12.07;2.65;;;;;;;19.66;75.96;100866.72;5088090;28;20050;-60
2022/10/22 10:58:04;;;;;;;11.82;2.58;;;;;;;19.77;74.09;100864.91;5107940;28;20071;-57
2022/10/22 11:00:35;;;;;;;13.98;2.65;;;;;;;19.72;74.87;100867.19;5089942;28;20368;-57
2022/10/22 11:03:30;;;;;;;10.65;2.47;;;;;;;19.88;74.21;100863.13;5089756;28;20051;-59
2022/10/22 11:06:09;;;;;;;14.95;2.47;;;;;;;19.91;73.05;100867.16;5086811;28;20053;-58
2022/10/22 11:08:40;;;;;;;11.50;2.67;;;;;;;19.95;73.86;100868.03;5085987;28;20040;-59
2022/10/22 11:11:14;;;;;;;10.00;2.28;;;;;;;20.00;74.95;100865.72;5070985;28;20044;-60
2022/10/22 11:13:59;;;;;;;13.07;2.60;;;;;;;20.02;74.72;100874.56;5082820;28;20048;-59
2022/10/22 11:16:32;;;;;;;10.85;2.70;;;;;;;20.03;73.30;100870.56;5090869;28;20040;-59
2022/10/22 11:19:05;;;;;;;13.50;2.72;;;;;;;20.12;72.69;100878.69;5090965;28;20047;-58
2022/10/22 11:21:52;;;;;;;10.40;2.60;;;;;;;20.17;74.09;100870.06;5092437;28;20052;-60
2022/10/22 11:24:23;;;;;;;15.32;2.78;;;;;;;20.30;70.36;100863.06;5087929;28;20078;-57
2022/10/22 11:27:05;;;;;;;12.73;2.70;;;;;;;20.41;70.56;100866.84;5091004;28;20047;-58
2022/10/22 11:29:38;;;;;;;11.27;2.45;;;;;;;20.61;70.46;100864.72;5101312;28;20061;-55
2022/10/22 11:32:25;;;;;;;12.05;2.38;;;;;;;20.32;71.52;100859.88;5065462;28;20066;-61
2022/10/22 11:34:55;;;;;;;13.70;2.70;;;;;;;20.56;69.60;100857.47;5091205;28;20053;-58
2022/10/22 11:37:26;;;;;;;10.15;2.70;;;;;;;20.47;69.55;100844.94;5083168;28;20074;-59
2022/10/22 11:39:58;;;;;;;10.73;1.92;;;;;;;20.45;70.20;100850.91;5082046;28;20064;-61